createdAt,value
2019-05-11T00:02:24.785Z,8.20
2019-05-11T00:04:52.329Z,10.40
2019-05-11T00:07:19.882Z,14.23
2019-05-11T00:09:57.612Z,8.43
2019-05-11T00:12:17.663Z,10.50
2019-05-11T00:14:45.210Z,11.60
2019-05-11T00:17:12.546Z,11.53
2019-05-11T00:19:40.097Z,8.70
2019-05-11T00:22:07.530Z,13.10
2019-05-11T00:24:35.058Z,10.80
2019-05-11T00:27:02.410Z,8.50
2019-05-11T00:29:30.151Z,7.20
2019-05-11T00:31:57.743Z,12.90
2019-05-11T00:34:26.494Z,9.03
2019-05-11T00:36:54.059Z,12.67
2019-05-11T00:39:21.587Z,9.20
2019-05-11T00:41:49.312Z,11.83
2019-05-11T00:44:16.726Z,9.23
2019-05-11T00:46:44.256Z,10.77
2019-05-11T00:49:13.405Z,11.73
2019-05-11T00:51:41.512Z,9.03
2019-05-11T00:54:09.102Z,10.77
2019-05-11T00:56:36.586Z,9.33
2019-05-11T00:59:04.183Z,13.33
2019-05-11T01:01:33.305Z,12.67
2019-05-11T01:04:00.821Z,10.33
2019-05-11T01:06:28.909Z,10.57
2019-05-11T01:08:56.298Z,8.47
2019-05-11T01:11:23.798Z,11.50
2019-05-11T01:13:51.203Z,8.83
2019-05-11T01:16:18.728Z,12.83
2019-05-11T01:18:46.213Z,8.87
2019-05-11T01:21:13.711Z,8.57
2019-05-11T01:23:41.321Z,9.17
2019-05-11T01:26:08.824Z,8.07
2019-05-11T01:28:36.190Z,7.33
2019-05-11T01:31:03.503Z,11.80
2019-05-11T01:33:31.126Z,7.83
2019-05-11T01:35:58.700Z,9.40
2019-05-11T01:38:26.238Z,11.67
2019-05-11T01:40:58.530Z,7.20
2019-05-11T01:43:24.266Z,10.67
2019-05-11T01:45:51.839Z,7.97
2019-05-11T01:48:19.435Z,10.73
2019-05-11T01:50:46.963Z,8.10
2019-05-11T01:53:14.450Z,7.10
2019-05-11T01:55:42.013Z,5.97
2019-05-11T01:58:09.472Z,7.70
2019-05-11T02:00:37.090Z,9.07
2019-05-11T02:03:04.485Z,17.07
2019-05-11T02:05:32.073Z,10.00
2019-05-11T02:08:01.090Z,10.97
2019-05-11T02:10:29.234Z,11.50
2019-05-11T02:12:57.267Z,14.57
2019-05-11T02:15:24.790Z,9.47
2019-05-11T02:17:52.342Z,10.83
2019-05-11T02:20:19.854Z,7.77
2019-05-11T02:22:47.360Z,11.53
2019-05-11T02:25:15.169Z,12.27
2019-05-11T02:27:42.710Z,10.90
2019-05-11T02:30:11.075Z,10.40
2019-05-11T02:32:39.528Z,9.77
2019-05-11T02:35:07.371Z,13.20
2019-05-11T02:37:34.941Z,6.77
2019-05-11T02:40:03.238Z,12.30
2019-05-11T02:42:30.584Z,11.00
2019-05-11T02:44:58.212Z,7.57
2019-05-11T02:47:25.624Z,9.63
2019-05-11T02:49:53.057Z,9.93
2019-05-11T02:52:20.900Z,11.00
2019-05-11T02:54:51.539Z,11.60
2019-05-11T02:57:19.011Z,12.83
2019-05-11T02:59:46.503Z,11.97
2019-05-11T03:02:13.945Z,10.60
2019-05-11T03:04:41.503Z,12.23
2019-05-11T03:07:08.989Z,10.13
2019-05-11T03:09:38.103Z,9.70
2019-05-11T03:12:05.652Z,10.93
2019-05-11T03:14:33.037Z,11.10
2019-05-11T03:17:13.429Z,12.20
2019-05-11T03:19:40.976Z,11.90
2019-05-11T03:22:08.557Z,12.40
2019-05-11T03:24:36.028Z,12.20
2019-05-11T03:27:03.580Z,9.40
2019-05-11T03:29:31.021Z,10.03
2019-05-11T03:31:58.734Z,7.43
2019-05-11T03:34:26.267Z,8.40
2019-05-11T03:36:53.784Z,12.40
2019-05-11T03:39:21.362Z,10.20
2019-05-11T03:41:51.305Z,9.20
2019-05-11T03:44:18.943Z,9.17
2019-05-11T03:46:46.423Z,12.73
2019-05-11T03:49:14.059Z,11.13
2019-05-11T03:51:41.594Z,11.10
2019-05-11T03:54:09.219Z,10.73
2019-05-11T03:56:36.798Z,11.50
2019-05-11T03:59:04.177Z,10.60
2019-05-11T04:01:34.042Z,13.40
2019-05-11T04:04:01.531Z,12.80
2019-05-11T04:06:29.236Z,11.17
2019-05-11T04:08:56.747Z,19.70
2019-05-11T04:11:24.298Z,17.70
2019-05-11T04:13:51.872Z,13.80
2019-05-11T04:16:19.417Z,12.13
2019-05-11T04:18:46.939Z,9.90
2019-05-11T04:21:14.801Z,10.23
2019-05-11T04:23:42.551Z,14.93
2019-05-11T04:26:10.160Z,12.93
2019-05-11T04:28:37.729Z,13.73
2019-05-11T04:31:05.432Z,15.67
2019-05-11T04:33:33.536Z,16.77
2019-05-11T04:36:01.134Z,11.20
2019-05-11T04:38:28.882Z,15.20
2019-05-11T04:40:56.623Z,15.07
2019-05-11T04:43:24.492Z,12.07
2019-05-11T04:45:52.614Z,15.20
2019-05-11T04:48:20.865Z,12.10
2019-05-11T04:50:50.457Z,11.73
2019-05-11T04:53:18.166Z,10.70
2019-05-11T04:55:45.767Z,11.23
2019-05-11T04:58:13.311Z,12.47
2019-05-11T05:00:40.890Z,8.73
2019-05-11T05:03:08.353Z,10.00
2019-05-11T05:05:35.798Z,11.80
2019-05-11T05:08:09.598Z,12.03
2019-05-11T05:10:34.486Z,12.23
2019-05-11T05:13:10.072Z,13.90
2019-05-11T05:15:31.398Z,14.13
2019-05-11T05:17:58.990Z,13.07
2019-05-11T05:20:26.503Z,12.80
2019-05-11T05:22:54.213Z,13.13
2019-05-11T05:25:21.863Z,9.60
2019-05-11T05:27:49.687Z,9.90
2019-05-11T05:30:17.309Z,12.50
2019-05-11T05:32:45.049Z,10.10
2019-05-11T05:35:12.925Z,13.83
2019-05-11T05:37:40.516Z,10.83
2019-05-11T05:40:08.948Z,11.70
2019-05-11T05:42:37.044Z,12.27
2019-05-11T05:45:05.239Z,12.43
2019-05-11T05:47:33.025Z,14.00
2019-05-11T05:50:00.581Z,11.73
2019-05-11T05:52:28.324Z,12.73
2019-05-11T05:54:55.812Z,13.03
2019-05-11T05:57:23.333Z,8.37
2019-05-11T05:59:50.791Z,10.23
2019-05-11T06:02:18.515Z,9.70
2019-05-11T06:04:46.097Z,11.63
2019-05-11T06:07:14.049Z,7.30
2019-05-11T06:09:41.681Z,9.90
2019-05-11T06:12:09.330Z,15.83
2019-05-11T06:14:36.992Z,7.60
2019-05-11T06:17:04.583Z,11.93
2019-05-11T06:19:32.135Z,8.37
2019-05-11T06:21:59.884Z,8.43
2019-05-11T06:24:27.550Z,6.80
2019-05-11T06:26:55.485Z,8.53
2019-05-11T06:29:23.085Z,9.00
2019-05-11T06:31:50.718Z,8.60
2019-05-11T06:34:18.397Z,8.43
2019-05-11T06:36:46.160Z,7.50
2019-05-11T06:39:13.714Z,8.70
2019-05-11T06:41:41.186Z,11.57
2019-05-11T06:44:10.042Z,6.03
2019-05-11T06:46:37.689Z,8.70
2019-05-11T06:49:05.223Z,14.57
2019-05-11T06:51:32.742Z,8.10
2019-05-11T06:54:00.334Z,7.10
2019-05-11T06:56:27.757Z,7.50
2019-05-11T06:58:55.215Z,8.43
2019-05-11T07:01:22.865Z,7.60
2019-05-11T07:03:50.325Z,7.53
2019-05-11T07:06:17.703Z,10.73
2019-05-11T07:08:46.375Z,5.83
2019-05-11T07:11:13.956Z,12.57
2019-05-11T07:13:41.550Z,11.10
2019-05-11T07:16:09.113Z,6.57
2019-05-11T07:18:36.667Z,10.20
2019-05-11T07:21:05.441Z,5.90
2019-05-11T07:23:33.023Z,7.00
2019-05-11T07:26:00.800Z,8.67
2019-05-11T07:28:28.354Z,7.00
2019-05-11T07:30:55.964Z,9.50
2019-05-11T07:33:23.630Z,6.73
2019-05-11T07:35:51.482Z,11.13
2019-05-11T07:38:18.991Z,10.47
2019-05-11T07:40:47.629Z,6.43
2019-05-11T07:43:15.581Z,7.03
2019-05-11T07:45:43.490Z,7.20
2019-05-11T07:48:11.243Z,9.30
2019-05-11T07:50:38.924Z,6.43
2019-05-11T07:53:08.176Z,7.43
2019-05-11T07:55:37.960Z,5.40
2019-05-11T07:58:07.870Z,10.67
2019-05-11T08:00:39.118Z,6.50
2019-05-11T08:03:05.821Z,9.53
2019-05-11T08:05:33.568Z,6.40
2019-05-11T08:08:01.333Z,4.40
2019-05-11T08:10:29.277Z,6.60
2019-05-11T08:12:58.856Z,7.23
2019-05-11T08:15:28.393Z,5.73
2019-05-11T08:17:57.820Z,6.80
2019-05-11T08:20:25.205Z,6.60
2019-05-11T08:22:52.727Z,7.10
2019-05-11T08:25:20.543Z,5.30
2019-05-11T08:27:48.918Z,9.37
2019-05-11T08:30:18.763Z,6.17
2019-05-11T08:32:46.126Z,5.73
2019-05-11T08:35:14.002Z,9.93
2019-05-11T08:38:00.927Z,8.50
2019-05-11T08:40:28.998Z,6.20
2019-05-11T08:42:58.254Z,5.63
2019-05-11T08:45:27.962Z,6.13
2019-05-11T08:47:57.750Z,5.00
2019-05-11T08:50:24.881Z,7.50
2019-05-11T08:52:52.585Z,6.97
2019-05-11T08:55:20.117Z,5.13
2019-05-11T08:57:49.502Z,4.93
2019-05-11T09:00:18.589Z,9.00
2019-05-11T09:02:49.601Z,8.30
2019-05-11T09:05:18.489Z,9.87
2019-05-11T09:07:45.065Z,10.13
2019-05-11T09:10:13.010Z,7.60
2019-05-11T09:12:40.337Z,6.43
2019-05-11T09:15:08.753Z,8.20
2019-05-11T09:17:38.150Z,8.13
2019-05-11T09:20:08.532Z,5.77
2019-05-11T09:22:37.954Z,9.17
2019-05-11T09:25:05.000Z,5.97
2019-05-11T09:27:32.499Z,6.17
2019-05-11T09:29:59.875Z,8.37
2019-05-11T09:32:28.521Z,6.70
2019-05-11T09:34:58.011Z,8.23
2019-05-11T09:37:27.574Z,6.70
2019-05-11T09:39:54.708Z,5.73
2019-05-11T09:42:22.219Z,8.00
2019-05-11T09:44:50.069Z,6.03
2019-05-11T09:47:18.952Z,7.23
2019-05-11T09:49:50.118Z,8.37
2019-05-11T09:52:18.198Z,7.03
2019-05-11T09:54:45.448Z,5.83
2019-05-11T09:57:12.933Z,8.47
2019-05-11T09:59:40.795Z,6.37
2019-05-11T10:02:08.290Z,7.43
2019-05-11T10:04:37.844Z,10.20
2019-05-11T10:07:05.013Z,8.87
2019-05-11T10:09:32.327Z,5.90
2019-05-11T10:11:59.659Z,6.43
2019-05-11T10:14:28.883Z,5.77
2019-05-11T10:16:58.438Z,5.03
2019-05-11T10:19:28.233Z,5.73
2019-05-11T10:21:57.858Z,8.67
2019-05-11T10:24:24.837Z,5.57
2019-05-11T10:26:53.919Z,6.50
2019-05-11T10:29:21.442Z,10.90
2019-05-11T10:31:50.217Z,5.50
2019-05-11T10:34:18.146Z,6.97
2019-05-11T10:36:45.763Z,4.70
2019-05-11T10:39:13.207Z,8.33
2019-05-11T10:41:41.264Z,6.60
2019-05-11T10:44:08.770Z,5.90
2019-05-11T10:46:38.053Z,5.73
2019-05-11T10:49:07.819Z,4.33
2019-05-11T10:51:35.016Z,5.40
2019-05-11T10:54:02.472Z,4.40
2019-05-11T10:56:29.915Z,4.33
2019-05-11T10:58:58.620Z,4.87
2019-05-11T11:01:28.402Z,4.43
2019-05-11T11:03:55.660Z,6.80
2019-05-11T11:06:22.994Z,4.63
2019-05-11T11:08:50.593Z,5.43
2019-05-11T11:11:18.617Z,3.43
2019-05-11T11:13:48.012Z,3.30
2019-05-11T11:16:15.611Z,6.23
2019-05-11T11:18:43.221Z,4.30
2019-05-11T11:21:10.705Z,7.07
2019-05-11T11:23:38.488Z,5.03
2019-05-11T11:26:08.266Z,6.73
2019-05-11T11:28:35.657Z,3.10
2019-05-11T11:31:03.015Z,5.60
2019-05-11T11:33:30.460Z,3.67
2019-05-11T11:35:58.101Z,3.67
2019-05-11T11:38:25.530Z,8.10
2019-05-11T11:40:53.067Z,6.57
2019-05-11T11:43:20.507Z,4.03
2019-05-11T11:45:50.345Z,4.13
2019-05-11T11:48:18.897Z,5.20
2019-05-11T11:50:48.087Z,3.53
2019-05-11T11:53:15.779Z,3.10
2019-05-11T11:55:43.291Z,3.37
2019-05-11T11:58:10.925Z,4.77
2019-05-11T12:00:39.118Z,4.73
2019-05-11T12:03:08.027Z,5.43
2019-05-11T12:05:38.635Z,4.10
2019-05-11T12:08:08.621Z,4.97
2019-05-11T12:10:37.981Z,3.60
2019-05-11T12:13:05.586Z,3.53
2019-05-11T12:15:33.069Z,4.20
2019-05-11T12:18:00.539Z,3.23
2019-05-11T12:20:28.778Z,6.17
2019-05-11T12:22:58.161Z,3.73
2019-05-11T12:25:27.602Z,6.00
2019-05-11T12:27:54.856Z,7.83
2019-05-11T12:30:22.617Z,5.17
2019-05-11T12:32:50.141Z,3.07
2019-05-11T12:35:18.298Z,5.50
2019-05-11T12:37:48.263Z,3.47
2019-05-11T12:40:18.007Z,4.93
2019-05-11T12:42:45.547Z,4.47
2019-05-11T12:45:13.198Z,4.40
2019-05-11T12:47:41.951Z,5.10
2019-05-11T12:50:10.979Z,4.73
2019-05-11T12:52:38.486Z,3.43
2019-05-11T12:55:08.521Z,4.10
2019-05-11T12:57:35.765Z,3.37
2019-05-11T13:00:03.688Z,3.63
2019-05-11T13:02:31.402Z,3.13
2019-05-11T13:04:58.807Z,3.60
2019-05-11T13:07:28.940Z,3.30
2019-05-11T13:09:57.972Z,4.77
2019-05-11T13:12:27.802Z,3.93
2019-05-11T13:14:55.005Z,2.50
2019-05-11T13:17:34.152Z,5.57
2019-05-11T13:19:52.883Z,5.47
2019-05-11T13:22:20.434Z,3.20
2019-05-11T13:24:48.482Z,5.27
2019-05-11T13:27:17.864Z,2.90
2019-05-11T13:29:45.139Z,3.03
2019-05-11T13:32:12.842Z,4.77
2019-05-11T13:34:40.632Z,3.97
2019-05-11T13:37:08.262Z,3.90
2019-05-11T13:39:37.782Z,5.00
2019-05-11T13:42:08.071Z,4.80
2019-05-11T13:44:35.612Z,4.20
2019-05-11T13:47:03.175Z,4.53
2019-05-11T13:49:32.571Z,4.70
2019-05-11T13:52:00.448Z,3.33
2019-05-11T13:54:29.822Z,3.70
2019-05-11T13:56:57.756Z,3.60
2019-05-11T13:59:25.405Z,5.27
2019-05-11T14:01:52.864Z,6.20
2019-05-11T14:04:20.372Z,3.33
2019-05-11T14:06:48.850Z,5.00
2019-05-11T14:09:18.434Z,4.90
2019-05-11T14:11:47.482Z,5.20
2019-05-11T14:14:15.268Z,4.58
2019-05-11T14:16:51.242Z,3.13
2019-05-11T14:19:19.007Z,5.03
2019-05-11T14:21:48.772Z,4.20
2019-05-11T14:24:18.181Z,3.33
2019-05-11T14:26:45.081Z,3.57
2019-05-11T14:29:12.595Z,3.43
2019-05-11T14:31:41.106Z,5.10
2019-05-11T14:34:09.114Z,3.67
2019-05-11T14:36:38.772Z,3.03
2019-05-11T14:39:08.468Z,3.60
2019-05-11T14:41:38.088Z,3.10
2019-05-11T14:44:05.372Z,5.77
2019-05-11T14:46:33.020Z,6.60
2019-05-11T14:49:00.484Z,4.03
2019-05-11T14:51:28.321Z,5.77
2019-05-11T14:53:57.358Z,5.77
2019-05-11T14:56:27.795Z,3.93
2019-05-11T14:58:55.085Z,4.03
2019-05-11T15:01:22.702Z,6.67
2019-05-11T15:03:50.233Z,3.20
2019-05-11T15:06:18.784Z,4.90
2019-05-11T15:08:47.831Z,6.23
2019-05-11T15:11:15.815Z,3.37
2019-05-11T15:13:43.497Z,7.03
2019-05-11T15:16:11.090Z,4.10
2019-05-11T15:18:41.895Z,5.20
2019-05-11T15:21:08.430Z,3.17
2019-05-11T15:23:37.815Z,5.40
2019-05-11T15:26:07.150Z,3.93
2019-05-11T15:28:34.333Z,6.57
2019-05-11T15:31:01.829Z,7.17
2019-05-11T15:33:29.205Z,3.23
2019-05-11T15:35:58.306Z,5.37
2019-05-11T15:38:28.268Z,4.10
2019-05-11T15:40:57.930Z,3.80
2019-05-11T15:43:25.527Z,6.73
2019-05-11T15:45:52.995Z,6.90
2019-05-11T15:48:20.616Z,4.40
2019-05-11T15:50:48.821Z,3.53
2019-05-11T15:53:17.886Z,7.23
2019-05-11T15:55:46.637Z,3.50
2019-05-11T15:58:14.229Z,6.23
2019-05-11T16:00:41.675Z,5.80
2019-05-11T16:03:09.133Z,7.03
2019-05-11T16:05:36.594Z,5.60
2019-05-11T16:08:04.155Z,3.40
2019-05-11T16:10:31.646Z,5.63
2019-05-11T16:12:59.177Z,5.27
2019-05-11T16:15:27.721Z,7.27
2019-05-11T16:17:57.669Z,4.50
2019-05-11T16:20:24.694Z,4.80
2019-05-11T16:22:53.007Z,7.37
2019-05-11T16:25:20.598Z,8.87
2019-05-11T16:27:48.670Z,6.70
2019-05-11T16:30:20.790Z,7.80
2019-05-11T16:32:48.064Z,5.07
2019-05-11T16:35:17.773Z,4.47
2019-05-11T16:37:48.699Z,5.80
2019-05-11T16:40:20.931Z,8.87
2019-05-11T16:42:49.285Z,3.93
2019-05-11T16:45:18.923Z,5.80
2019-05-11T16:47:48.312Z,3.93
2019-05-11T16:50:18.073Z,4.80
2019-05-11T16:52:47.901Z,6.40
2019-05-11T16:55:15.127Z,3.67
2019-05-11T16:57:48.421Z,4.80
2019-05-11T17:00:15.187Z,3.43
2019-05-11T17:02:42.541Z,3.73
2019-05-11T17:05:25.389Z,3.17
2019-05-11T17:07:40.573Z,4.90
2019-05-11T17:10:11.397Z,4.10
2019-05-11T17:12:38.921Z,4.93
2019-05-11T17:15:08.930Z,4.60
2019-05-11T17:17:36.377Z,3.77
2019-05-11T17:20:04.100Z,5.83
2019-05-11T17:22:31.975Z,5.33
2019-05-11T17:24:59.420Z,3.20
2019-05-11T17:27:28.550Z,3.37
2019-05-11T17:29:56.055Z,2.37
2019-05-11T17:32:23.561Z,3.77
2019-05-11T17:34:51.242Z,2.33
2019-05-11T17:37:18.866Z,4.93
2019-05-11T17:39:47.954Z,5.43
2019-05-11T17:42:18.034Z,4.73
2019-05-11T17:44:45.065Z,3.50
2019-05-11T17:47:12.784Z,3.73
2019-05-11T17:49:40.139Z,3.63
2019-05-11T17:52:08.150Z,3.10
2019-05-11T17:54:35.691Z,5.73
2019-05-11T17:57:03.224Z,5.23
2019-05-11T17:59:30.694Z,5.47
2019-05-11T18:01:58.178Z,3.87
2019-05-11T18:04:26.037Z,4.87
2019-05-11T18:06:53.659Z,2.90
2019-05-11T18:09:22.329Z,4.47
2019-05-11T18:11:50.020Z,4.70
2019-05-11T18:14:17.550Z,4.83
2019-05-11T18:16:44.826Z,4.00
2019-05-11T18:19:12.197Z,5.33
2019-05-11T18:21:39.570Z,5.00
2019-05-11T18:24:09.189Z,6.53
2019-05-11T18:26:38.154Z,4.50
2019-05-11T18:29:05.879Z,5.80
2019-05-11T18:31:33.430Z,5.43
2019-05-11T18:34:01.007Z,6.53
2019-05-11T18:36:29.177Z,4.17
2019-05-11T18:38:56.802Z,4.83
2019-05-11T18:41:24.363Z,4.70
2019-05-11T18:43:51.839Z,4.40
2019-05-11T18:46:19.375Z,3.90
2019-05-11T18:48:48.627Z,3.30
2019-05-11T18:51:16.141Z,5.50
2019-05-11T18:53:44.643Z,5.33
2019-05-11T18:56:12.033Z,4.43
2019-05-11T18:58:39.389Z,4.20
2019-05-11T19:01:06.832Z,6.30
2019-05-11T19:03:34.308Z,4.73
2019-05-11T19:06:01.618Z,6.30
2019-05-11T19:08:29.056Z,9.17
2019-05-11T19:10:57.971Z,2.97
2019-05-11T19:13:27.918Z,6.70
2019-05-11T19:15:55.141Z,3.93
2019-05-11T19:18:22.709Z,5.00
2019-05-11T19:20:50.227Z,4.80
2019-05-11T19:23:19.155Z,6.80
2019-05-11T19:25:48.044Z,4.83
2019-05-11T19:28:15.811Z,4.13
2019-05-11T19:30:43.400Z,5.70
2019-05-11T19:33:11.164Z,5.53
2019-05-11T19:35:38.893Z,10.20
2019-05-11T19:38:08.479Z,7.13
2019-05-11T19:40:37.963Z,6.27
2019-05-11T19:43:05.022Z,9.27
2019-05-11T19:45:32.688Z,6.00
2019-05-11T19:48:00.138Z,7.53
2019-05-11T19:50:27.893Z,7.90
2019-05-11T19:52:57.743Z,4.87
2019-05-11T19:55:24.625Z,7.43
2019-05-11T19:57:52.030Z,9.10
2019-05-11T20:00:20.287Z,7.33
2019-05-11T20:02:47.698Z,4.40
2019-05-11T20:05:15.286Z,13.03
2019-05-11T20:07:48.185Z,4.97
2019-05-11T20:10:15.063Z,5.33
2019-05-11T20:12:43.578Z,9.47
2019-05-11T20:15:11.410Z,6.00
2019-05-11T20:17:39.270Z,6.13
2019-05-11T20:20:08.909Z,5.40
2019-05-11T20:22:38.849Z,5.00
2019-05-11T20:25:05.876Z,5.60
2019-05-11T20:27:33.342Z,9.57
2019-05-11T20:30:01.955Z,8.47
2019-05-11T20:32:29.440Z,4.57
2019-05-11T20:34:57.869Z,7.27
2019-05-11T20:37:25.510Z,8.37
2019-05-11T20:39:52.850Z,7.33
2019-05-11T20:42:20.487Z,4.80
2019-05-11T20:44:48.979Z,7.20
2019-05-11T20:47:17.803Z,5.80
2019-05-11T20:49:48.165Z,6.20
2019-05-11T20:52:17.812Z,7.30
2019-05-11T20:54:47.201Z,7.00
2019-05-11T20:57:14.689Z,7.17
2019-05-11T20:59:45.594Z,4.70
2019-05-11T21:02:13.018Z,5.83
2019-05-11T21:04:40.516Z,5.70
2019-05-11T21:07:09.940Z,7.23
2019-05-11T21:09:37.986Z,9.13
2019-05-11T21:12:07.949Z,4.73
2019-05-11T21:14:38.416Z,5.37
2019-05-11T21:17:05.050Z,5.37
2019-05-11T21:19:32.674Z,6.90
2019-05-11T21:22:00.367Z,3.30
2019-05-11T21:24:28.279Z,5.33
2019-05-11T21:26:58.255Z,7.30
2019-05-11T21:29:27.764Z,4.93
2019-05-11T21:31:54.557Z,6.80
2019-05-11T21:34:22.161Z,7.63
2019-05-11T21:36:49.755Z,8.20
2019-05-11T21:39:17.239Z,7.27
2019-05-11T21:41:44.802Z,10.90
2019-05-11T21:44:12.202Z,8.77
2019-05-11T21:46:39.704Z,5.77
2019-05-11T21:49:08.613Z,5.60
2019-05-11T21:51:38.114Z,8.53
2019-05-11T21:54:05.451Z,6.03
2019-05-11T21:56:32.761Z,7.67
2019-05-11T21:59:00.022Z,5.70
2019-05-11T22:01:28.169Z,8.60
2019-05-11T22:03:55.872Z,6.27
2019-05-11T22:06:23.517Z,7.47
2019-05-11T22:08:51.034Z,7.30
2019-05-11T22:11:18.366Z,15.90
2019-05-11T22:13:47.953Z,4.63
2019-05-11T22:16:15.607Z,10.97
2019-05-11T22:18:43.627Z,6.23
2019-05-11T22:21:11.059Z,8.63
2019-05-11T22:23:39.058Z,4.63
2019-05-11T22:26:07.730Z,6.60
2019-05-11T22:28:35.610Z,10.40
2019-05-11T22:31:03.133Z,3.50
2019-05-11T22:33:30.564Z,5.07
2019-05-11T22:35:58.726Z,6.87
2019-05-11T22:38:30.024Z,6.80
2019-05-11T22:40:58.287Z,8.10
2019-05-11T22:43:25.896Z,5.93
2019-05-11T22:45:53.506Z,9.33
2019-05-11T22:48:21.138Z,10.03
2019-05-11T22:50:50.600Z,10.03
2019-05-11T22:53:18.793Z,5.70
2019-05-11T22:55:48.555Z,6.37
2019-05-11T22:58:17.892Z,4.70
2019-05-11T23:00:45.776Z,6.63
2019-05-11T23:03:13.122Z,7.10
2019-05-11T23:05:44.417Z,7.10
2019-05-11T23:08:11.823Z,6.57
2019-05-11T23:10:39.494Z,11.40
2019-05-11T23:13:08.235Z,6.63
2019-05-11T23:15:40.104Z,4.00
2019-05-11T23:18:05.867Z,7.60
2019-05-11T23:20:33.374Z,7.33
2019-05-11T23:23:01.720Z,7.37
2019-05-11T23:25:29.427Z,9.73
2019-05-11T23:27:58.754Z,4.80
2019-05-11T23:30:28.111Z,6.00
2019-05-11T23:32:55.541Z,7.50
2019-05-11T23:35:23.003Z,8.13
2019-05-11T23:37:50.434Z,6.00
2019-05-11T23:40:18.512Z,7.07
2019-05-11T23:42:48.647Z,9.17
2019-05-11T23:45:18.537Z,10.77
2019-05-11T23:47:48.306Z,8.20
2019-05-11T23:50:15.307Z,4.90
2019-05-11T23:52:45.559Z,6.70
2019-05-11T23:55:12.893Z,10.87
2019-05-11T23:57:40.344Z,5.53
